Main page
METAR-TAF:

METAR-TAF

Airports :

Duong Dong Airport

Phú Quốc, Vietnam

latitude: 10-10-18N, longitude: 103-59-28E, elevation: 11 m

Current weather observation

The report was made 43 minutes ago, at 05:30 UTC
Temperature 27°C
Humidity 54%
Pressure 1012 hPa
Visibility 10 km or more
no clouds below 1500 m and no cumulonimbus

METAR: VVPQ 060530Z 01011 330V050 CAVOK 27/17 Q1012 NOSIG

Time: 13:13 (06:13 UTC)

Forecast

The report was made 1 hour and 13 minutes ago, at 05:00 UTC
Forecast valid from 06 at 06 UTC to 07 at 06 UTC
Wind 12 kt from the North/Northeast
Visibility 10 km or more
Scattered clouds at a height of 1700 ft
Temporary
from 06 at 06 UTC to 06 at 10 UTC
Wind 15 kt from the North/Northeast with gusts up to 26 kt

TAF: VVPQ 060500Z 0606/0706 02012KT 9999 SCT017 TEMPO 0606/0610 02015G26KT

Weather observations and forecasts of more than 4000 airports (METAR and TAF reports).

The available stations are represented by yellow and red dots on the map.

Hover mouse over dot to see the name of the station.

Then click to see weather observations and forecasts.

To change the map : click on the green buttons with a black cross to zoom in, on the green button with a dash to zoom out, or on the green arrows for adjacent maps.


METAR-TAF: